Capitol Logistics 455


KPDX
Portland International Airport
Portland, Oregon, US
KRFD
Chicago/Rockford International Airport
Rockford, Illinois, US

Activity Log

Date Flight Route Aircraft Duration
03/24/2020 CPX455 LAVAA6 PDT DLN RAP J82 FSD J16 MCW DBQ B738 3h 39m
07/04/2019 CPX455 LAVAA6 PDT DLN RAP J82 FSD J16 MCW DBQ B738 3h 31m

Route Details

Aircraft Information
Primary: Boeing 737-800BCF
Backup: Not Available
Route Data
Distance: 1457nm
Sched. Duration: 3h 10m
Avg. Duration: 3h 35m (+25m)
Times Flown: 2
Recm'd Route: LAVAA6 PDT DLN RAP J82 FSD J16 MCW DBQ
Planned Altitude: 37,000ft
Origin Wx: KPDX 281153Z 31005KT 10SM CLR 13/10 A3030 RMK AO2 SLP259 T01330100 10161 20111 56012
Dest. Wx: KRFD 281154Z 25005KT 10SM SCT009 BKN012 OVC017 11/09 A2977 RMK AO2 SLP081 60006 70053 T01110089 10117 20106 56008
Notes:

Financial History
Total Freight: 28,512lbs
Average Load: 14,256lbs/flt
Fuel Used: 33,510lbs
Avg. Fuel Used: 16,755lbs/flt
Fuel Expense: $29,154
Avg. Fuel Expense: $14,577
Avg. Fuel Cost: $0.87/lbs
Total Gross Income: $38,771
Pilot Pay: $328
Total Expenses: $4,291
Total Revenue: $4,120
Average Revenue: $19,385.52